< < Back
Terminal Aerodrome Forecast


Current Version              Previous Versions:   1  2  3  4  5  6  7  8  9  

Terminal Aerodrome Forecast

941
FTUS42 KFFC 300532
TAFPDK
TAF
KPDK 300532Z 3006/3106 19007KT P6SM SCT040 BKN150
     FM301000 20009KT P6SM SCT012 BKN040
     FM301100 22010KT 5SM -SHRA BKN008 OVC015
     FM301300 24010KT P6SM VCSH OVC008
     FM301500 28008KT P6SM SCT008 BKN012
     FM301700 30010G15KT P6SM BKN035
     FM301900 31011G16KT P6SM FEW035
     FM302200 30010KT P6SM SKC=



Latest METAR

410
SAUS70 KWBC 300500 RRB
MTRPDK
METAR KPDK 300453Z AUTO 19007KT 10SM CLR 11/M03 A3021 RMK AO2 SLP234
T01061033 401561039


USA.gov is the U.S. government's official web portal to all federal, state and local government web resources and services.